Time;durP1;ratioP1;P1;durP2;ratioP2;P2;SDS_P1;SDS_P2;PMS_P1;PMS_P2;Temp;Humidity;BMP_temperature;BMP_pressure;BME280_temperature;BME280_humidity;BME280_pressure;Samples;Min_cycle;Max_cycle;Signal;HPM_P1;HPM_P2
2024/04/17 00:01:18;;;;;;;1.00;0.90;;;5.00;99.90;;;;;;5400148;26;20224;-63
2024/04/17 00:03:44;;;;;;;1.20;1.20;;;5.00;99.90;;;;;;5402003;26;20241;-63
2024/04/17 00:06:10;;;;;;;1.20;1.10;;;5.00;99.90;;;;;;5401848;26;20236;-63
2024/04/17 00:08:35;;;;;;;1.50;1.40;;;5.00;99.90;;;;;;5400527;26;20236;-63
2024/04/17 00:11:02;;;;;;;1.80;1.17;;;5.00;99.90;;;;;;5402829;26;20447;-63
2024/04/17 00:13:28;;;;;;;1.03;1.03;;;5.00;99.90;;;;;;5396851;26;20280;-63
2024/04/17 00:15:53;;;;;;;1.20;1.20;;;5.00;99.90;;;;;;5404497;26;20459;-62
2024/04/17 00:18:19;;;;;;;1.13;1.13;;;4.90;99.90;;;;;;5404478;26;20924;-62
2024/04/17 00:20:44;;;;;;;1.77;1.23;;;4.90;99.90;;;;;;5404883;26;20225;-63
2024/04/17 00:23:10;;;;;;;0.83;0.83;;;4.90;99.90;;;;;;5400883;26;20323;-63
2024/04/17 00:25:35;;;;;;;1.00;1.00;;;4.90;99.90;;;;;;5397881;26;20244;-63
2024/04/17 00:28:01;;;;;;;1.00;1.00;;;4.80;99.90;;;;;;5403527;26;20267;-63
2024/04/17 00:30:27;;;;;;;0.83;0.83;;;4.90;99.90;;;;;;5404671;26;20280;-62
2024/04/17 00:32:52;;;;;;;1.10;1.10;;;4.80;99.90;;;;;;5404450;26;20244;-64
2024/04/17 00:35:18;;;;;;;1.10;1.00;;;4.80;99.90;;;;;;5429475;26;20297;-63
2024/04/17 00:37:44;;;;;;;1.10;1.10;;;4.80;99.90;;;;;;5402178;26;20240;-63
2024/04/17 00:40:10;;;;;;;1.00;1.00;;;4.80;99.90;;;;;;5403243;26;20478;-61
2024/04/17 00:42:35;;;;;;;1.00;1.00;;;4.80;99.90;;;;;;5414032;26;20275;-63
2024/04/17 00:45:01;;;;;;;3.60;1.20;;;4.70;99.90;;;;;;5410354;26;20543;-63
2024/04/17 00:47:27;;;;;;;1.27;1.20;;;4.70;99.90;;;;;;5409142;26;20772;-63
2024/04/17 00:49:53;;;;;;;1.20;1.20;;;4.70;99.90;;;;;;5403227;26;20240;-62
2024/04/17 00:52:19;;;;;;;1.20;1.20;;;4.70;99.90;;;;;;5407431;26;20454;-63
2024/04/17 00:54:46;;;;;;;1.20;1.20;;;4.70;99.90;;;;;;5409039;26;20455;-63
2024/04/17 00:57:15;;;;;;;2.70;1.03;;;4.60;99.90;;;;;;5403620;26;20450;-63
2024/04/17 00:59:42;;;;;;;0.90;0.90;;;4.60;99.90;;;;;;5408243;26;20506;-63
2024/04/17 01:02:08;;;;;;;1.00;0.90;;;4.60;99.90;;;;;;5409048;26;20462;-63
2024/04/17 01:04:34;;;;;;;0.90;0.90;;;4.60;99.90;;;;;;5412078;26;20462;-63
2024/04/17 01:07:00;;;;;;;0.93;0.93;;;4.50;99.90;;;;;;5415063;26;20271;-63
2024/04/17 01:09:25;;;;;;;1.00;1.00;;;4.50;99.90;;;;;;5407786;26;20252;-63
2024/04/17 01:11:51;;;;;;;0.93;0.93;;;4.50;99.90;;;;;;5408369;26;20506;-63
2024/04/17 01:14:17;;;;;;;0.90;0.90;;;4.50;99.90;;;;;;5410694;26;20229;-63
2024/04/17 01:16:43;;;;;;;1.03;1.00;;;4.50;99.90;;;;;;5410602;26;20927;-63
2024/04/17 01:19:09;;;;;;;0.90;0.90;;;4.50;99.90;;;;;;5409131;26;20228;-62
2024/04/17 01:21:36;;;;;;;1.10;1.10;;;4.50;99.90;;;;;;5409036;26;20466;-62
2024/04/17 01:24:01;;;;;;;1.07;1.07;;;4.50;99.90;;;;;;5407739;26;21122;-63
2024/04/17 01:26:27;;;;;;;1.00;0.90;;;4.50;99.90;;;;;;5411712;26;20462;-63
2024/04/17 01:28:52;;;;;;;1.27;1.17;;;4.50;99.90;;;;;;5410446;26;20236;-63
2024/04/17 01:31:18;;;;;;;1.10;1.00;;;4.60;99.90;;;;;;5407096;26;20240;-64
2024/04/17 01:33:44;;;;;;;0.90;0.90;;;4.60;99.90;;;;;;5411818;26;20728;-63
2024/04/17 01:36:11;;;;;;;0.80;0.80;;;4.50;99.90;;;;;;5407850;26;20233;-63
2024/04/17 01:38:37;;;;;;;0.80;0.80;;;4.60;99.90;;;;;;5409934;26;20279;-63
2024/04/17 01:41:03;;;;;;;0.80;0.80;;;4.60;99.90;;;;;;5409218;26;20442;-63
2024/04/17 01:43:30;;;;;;;0.70;0.70;;;4.60;99.90;;;;;;5408877;26;20603;-63
2024/04/17 01:45:56;;;;;;;0.90;0.90;;;4.60;99.90;;;;;;5408273;26;20664;-62
2024/04/17 01:48:22;;;;;;;5.90;1.13;;;4.60;99.90;;;;;;5410152;26;20474;-63
2024/04/17 01:50:48;;;;;;;0.80;0.80;;;4.60;99.90;;;;;;5407573;26;20454;-63
2024/04/17 01:53:13;;;;;;;0.80;0.80;;;4.60;99.90;;;;;;5407579;26;20474;-63
2024/04/17 01:55:39;;;;;;;0.80;0.80;;;4.60;99.90;;;;;;5405305;26;20236;-63
2024/04/17 01:58:05;;;;;;;0.80;0.80;;;4.60;99.90;;;;;;5405426;26;20578;-63
2024/04/17 02:00:30;;;;;;;0.90;0.90;;;4.60;99.90;;;;;;5406814;26;20229;-62
2024/04/17 02:02:56;;;;;;;0.80;0.80;;;4.50;99.90;;;;;;5404665;26;20637;-63
2024/04/17 02:05:22;;;;;;;1.00;1.00;;;4.50;99.90;;;;;;5403208;26;20269;-63
2024/04/17 02:07:48;;;;;;;0.93;0.93;;;4.50;99.90;;;;;;5401437;26;20333;-62
2024/04/17 02:10:14;;;;;;;0.90;0.90;;;4.60;99.90;;;;;;5406141;26;20229;-63
2024/04/17 02:12:40;;;;;;;1.20;1.20;;;4.60;99.90;;;;;;5398339;26;22702;-64
2024/04/17 02:15:06;;;;;;;1.00;1.00;;;4.60;99.90;;;;;;5399915;26;21539;-64
2024/04/17 02:17:31;;;;;;;1.00;1.00;;;4.60;99.90;;;;;;5397962;26;20234;-63
2024/04/17 02:19:57;;;;;;;1.17;1.07;;;4.60;99.90;;;;;;5404265;26;20499;-62
2024/04/17 02:22:22;;;;;;;1.20;1.20;;;4.60;99.90;;;;;;5403637;26;20565;-63
2024/04/17 02:24:48;;;;;;;1.00;1.00;;;4.50;99.90;;;;;;5403373;26;20244;-63
2024/04/17 02:27:13;;;;;;;1.20;1.10;;;4.50;99.90;;;;;;5406186;26;20240;-63
2024/04/17 02:29:39;;;;;;;1.30;1.20;;;4.50;99.90;;;;;;5404922;26;20643;-63
2024/04/17 02:32:05;;;;;;;1.10;1.10;;;4.60;99.90;;;;;;5406811;26;20668;-62
2024/04/17 02:34:31;;;;;;;3.63;1.87;;;4.50;99.90;;;;;;5404777;26;21156;-62
2024/04/17 02:36:56;;;;;;;1.00;1.00;;;4.60;99.90;;;;;;5404685;26;20458;-62
2024/04/17 02:39:22;;;;;;;1.10;1.10;;;4.60;99.90;;;;;;5401132;26;20233;-64
2024/04/17 02:41:47;;;;;;;1.20;1.10;;;4.50;99.90;;;;;;5403529;26;20241;-62
2024/04/17 02:44:13;;;;;;;1.33;1.23;;;4.60;99.90;;;;;;5406743;26;20232;-62
2024/04/17 02:46:39;;;;;;;1.30;1.20;;;4.60;99.90;;;;;;5404406;26;20341;-67
2024/04/17 02:49:04;;;;;;;1.20;1.20;;;4.60;99.90;;;;;;5405347;26;20845;-62
2024/04/17 02:51:30;;;;;;;1.30;1.30;;;4.60;99.90;;;;;;5398523;26;20232;-63
2024/04/17 02:53:55;;;;;;;1.30;1.30;;;4.60;99.90;;;;;;5404394;26;20276;-63
2024/04/17 02:56:21;;;;;;;2.00;1.80;;;4.60;99.90;;;;;;5399474;26;20270;-64
2024/04/17 02:58:46;;;;;;;1.67;1.57;;;4.60;99.90;;;;;;5402121;26;20300;-63
2024/04/17 03:01:16;;;;;;;1.50;1.40;;;4.60;99.90;;;;;;5406877;26;20233;-63
2024/04/17 03:03:42;;;;;;;1.30;1.20;;;4.60;99.90;;;;;;5407024;26;20236;-63
2024/04/17 03:06:08;;;;;;;1.90;1.20;;;4.60;99.90;;;;;;5404351;26;20539;-63
2024/04/17 03:08:34;;;;;;;2.30;2.10;;;4.60;99.90;;;;;;5404271;26;20455;-63
2024/04/17 03:11:00;;;;;;;1.80;1.70;;;4.60;99.90;;;;;;5400762;26;20478;-63
2024/04/17 03:13:26;;;;;;;2.40;1.40;;;4.60;99.90;;;;;;5407131;26;20454;-62
2024/04/17 03:15:51;;;;;;;1.50;1.40;;;4.60;99.90;;;;;;5404337;26;20451;-63
2024/04/17 03:18:17;;;;;;;3.23;1.37;;;4.70;99.90;;;;;;5405933;26;20289;-62
2024/04/17 03:20:43;;;;;;;1.73;1.60;;;4.70;99.90;;;;;;5399273;26;20267;-62
2024/04/17 03:23:08;;;;;;;1.57;1.47;;;4.70;99.90;;;;;;5406410;26;20947;-63
2024/04/17 03:25:34;;;;;;;1.63;1.53;;;4.70;99.90;;;;;;5406123;26;20337;-63
2024/04/17 03:28:00;;;;;;;1.50;1.40;;;4.70;99.90;;;;;;5403126;26;20225;-62
2024/04/17 03:30:25;;;;;;;3.37;1.40;;;4.70;99.90;;;;;;5393022;26;20300;-63
2024/04/17 03:32:51;;;;;;;1.40;1.30;;;4.70;99.90;;;;;;5400745;26;20511;-62
2024/04/17 03:35:18;;;;;;;1.57;1.47;;;4.70;99.90;;;;;;5407096;26;20575;-62
2024/04/17 03:37:44;;;;;;;1.80;1.70;;;4.70;99.90;;;;;;5403884;26;20232;-62
2024/04/17 03:40:10;;;;;;;1.60;1.50;;;4.60;99.90;;;;;;5404913;26;20462;-62
2024/04/17 03:42:36;;;;;;;1.60;1.50;;;4.60;99.90;;;;;;5404567;26;20546;-63
2024/04/17 03:45:02;;;;;;;1.60;1.50;;;4.60;99.90;;;;;;5404441;26;20229;-63
2024/04/17 03:47:27;;;;;;;1.77;1.63;;;4.60;99.90;;;;;;5403956;26;20230;-62
2024/04/17 03:49:54;;;;;;;1.60;1.50;;;4.60;99.90;;;;;;5424986;26;20545;-63
2024/04/17 03:52:19;;;;;;;1.70;1.60;;;4.60;99.90;;;;;;5401167;26;20298;-63
2024/04/17 03:54:45;;;;;;;1.80;1.70;;;4.60;99.90;;;;;;5404257;26;20447;-63
2024/04/17 03:57:10;;;;;;;2.10;1.93;;;4.60;99.90;;;;;;5406559;26;20232;-62
2024/04/17 03:59:36;;;;;;;1.80;1.70;;;4.60;99.90;;;;;;5403112;26;20349;-63
2024/04/17 04:02:05;;;;;;;1.70;1.60;;;4.60;99.90;;;;;;5400788;26;20373;-62
2024/04/17 04:04:31;;;;;;;6.30;1.70;;;4.60;99.90;;;;;;5401206;26;20270;-60
2024/04/17 04:06:57;;;;;;;2.37;2.03;;;4.60;99.90;;;;;;5402453;26;20454;-59
2024/04/17 04:09:23;;;;;;;1.87;1.77;;;4.60;99.90;;;;;;5402691;26;20263;-58
2024/04/17 04:11:49;;;;;;;2.37;2.17;;;4.60;99.90;;;;;;5386943;26;20229;-60
2024/04/17 04:14:15;;;;;;;2.90;2.00;;;4.60;99.90;;;;;;5396014;26;21641;-59
2024/04/17 04:16:41;;;;;;;2.57;2.37;;;4.50;99.90;;;;;;5398839;26;20872;-61
2024/04/17 04:19:06;;;;;;;2.13;2.03;;;4.50;99.90;;;;;;5403484;26;21316;-62
2024/04/17 04:21:32;;;;;;;2.97;2.77;;;4.50;99.90;;;;;;5398478;26;20349;-64
2024/04/17 04:23:57;;;;;;;3.17;2.77;;;4.50;99.90;;;;;;5402895;26;20284;-66
2024/04/17 04:26:23;;;;;;;2.47;2.27;;;4.50;99.90;;;;;;5408091;26;20289;-64
2024/04/17 04:28:49;;;;;;;1.90;1.80;;;4.50;99.90;;;;;;5397561;26;20228;-65
2024/04/17 04:31:14;;;;;;;1.90;1.80;;;4.60;99.90;;;;;;5399308;26;20283;-61
2024/04/17 04:33:40;;;;;;;4.73;3.73;;;4.60;99.90;;;;;;5395272;26;20816;-64
2024/04/17 04:36:06;;;;;;;2.80;2.50;;;4.60;99.90;;;;;;5406767;26;22253;-66
2024/04/17 04:38:31;;;;;;;2.20;2.00;;;4.60;99.90;;;;;;5398645;26;20637;-64
2024/04/17 04:40:58;;;;;;;2.33;2.13;;;4.60;99.90;;;;;;5399441;26;20618;-65
2024/04/17 04:43:24;;;;;;;2.30;2.10;;;4.60;99.90;;;;;;5395447;26;20632;-65
2024/04/17 04:45:49;;;;;;;3.50;2.10;;;4.60;99.90;;;;;;5402173;26;21240;-62
2024/04/17 04:48:15;;;;;;;2.23;2.13;;;4.60;99.90;;;;;;5402389;26;20237;-64
2024/04/17 04:50:40;;;;;;;2.40;2.10;;;4.70;99.90;;;;;;5407818;26;20220;-65
2024/04/17 04:53:06;;;;;;;4.70;1.77;;;4.70;99.90;;;;;;5403188;26;20240;-66
2024/04/17 04:55:32;;;;;;;2.00;1.90;;;4.70;99.90;;;;;;5407828;26;20265;-64
2024/04/17 04:57:58;;;;;;;1.97;1.83;;;4.70;99.90;;;;;;5398778;26;20303;-65
2024/04/17 05:00:23;;;;;;;2.00;1.90;;;4.70;99.90;;;;;;5409335;26;20462;-63
2024/04/17 05:02:49;;;;;;;2.00;1.87;;;4.70;99.90;;;;;;5403270;26;20229;-64
2024/04/17 05:05:14;;;;;;;1.90;1.60;;;4.70;99.90;;;;;;5400251;26;20772;-67
2024/04/17 05:07:40;;;;;;;1.40;1.30;;;4.70;99.90;;;;;;5406150;26;20271;-66
2024/04/17 05:10:06;;;;;;;1.53;1.43;;;4.70;99.90;;;;;;5403682;26;20279;-64
2024/04/17 05:12:31;;;;;;;1.60;1.50;;;4.60;99.90;;;;;;5400065;26;20217;-65
2024/04/17 05:14:57;;;;;;;1.70;1.60;;;4.60;99.90;;;;;;5406374;26;20304;-65
2024/04/17 05:17:23;;;;;;;2.70;1.80;;;4.60;99.90;;;;;;5398427;26;20330;-63
2024/04/17 05:19:48;;;;;;;2.17;1.97;;;4.60;99.90;;;;;;5406140;26;20263;-65
2024/04/17 05:22:14;;;;;;;1.63;1.53;;;4.60;99.90;;;;;;5404376;26;20607;-65
2024/04/17 05:24:39;;;;;;;1.90;1.80;;;4.60;99.90;;;;;;5407394;26;20236;-66
2024/04/17 05:27:05;;;;;;;1.67;1.57;;;4.60;99.90;;;;;;5410969;26;20224;-65
2024/04/17 05:29:31;;;;;;;1.50;1.40;;;4.70;99.90;;;;;;5410267;26;20216;-65
2024/04/17 05:31:56;;;;;;;1.80;1.70;;;4.70;99.90;;;;;;5406077;26;20232;-64
2024/04/17 05:34:22;;;;;;;1.50;1.40;;;4.70;99.90;;;;;;5404864;26;20233;-65
2024/04/17 05:36:47;;;;;;;1.60;1.50;;;4.70;99.90;;;;;;5408441;26;20233;-65
2024/04/17 05:39:13;;;;;;;1.57;1.47;;;4.80;99.90;;;;;;5411119;26;20229;-66
2024/04/17 05:41:38;;;;;;;1.50;1.40;;;4.80;99.90;;;;;;5405869;26;20644;-65
2024/04/17 05:44:04;;;;;;;1.60;1.50;;;4.80;99.90;;;;;;5406629;26;20232;-65
2024/04/17 05:46:30;;;;;;;1.50;1.40;;;4.80;99.90;;;;;;5410480;26;20221;-65
2024/04/17 05:48:55;;;;;;;1.33;1.23;;;4.80;99.90;;;;;;5409581;26;20229;-65
2024/04/17 05:51:21;;;;;;;1.43;1.27;;;4.80;99.90;;;;;;5411665;26;20229;-65
2024/04/17 05:53:46;;;;;;;1.33;1.30;;;4.80;99.90;;;;;;5408161;26;20236;-65
2024/04/17 05:56:12;;;;;;;1.70;1.60;;;4.80;99.90;;;;;;5408205;26;20276;-65
2024/04/17 05:58:38;;;;;;;1.53;1.30;;;4.90;99.90;;;;;;5409956;26;20220;-65
2024/04/17 06:01:03;;;;;;;4.20;2.80;;;4.90;99.90;;;;;;5404375;26;20896;-65
2024/04/17 06:03:29;;;;;;;2.40;1.30;;;4.90;99.90;;;;;;5408226;26;20248;-65
2024/04/17 06:05:54;;;;;;;1.37;1.30;;;4.90;99.90;;;;;;5405264;26;20288;-65
2024/04/17 06:08:20;;;;;;;1.60;1.17;;;4.90;99.90;;;;;;5410628;26;20221;-66
2024/04/17 06:10:45;;;;;;;1.30;1.20;;;4.90;99.90;;;;;;5409732;26;20237;-65
2024/04/17 06:13:11;;;;;;;1.77;1.60;;;5.00;99.90;;;;;;5406962;26;20275;-65
2024/04/17 06:15:37;;;;;;;1.60;1.50;;;5.00;99.90;;;;;;5409594;26;20550;-65
2024/04/17 06:18:05;;;;;;;1.60;1.50;;;5.10;99.90;;;;;;5410398;26;20217;-66
2024/04/17 06:20:30;;;;;;;9.77;1.80;;;5.10;99.90;;;;;;5403104;26;20225;-64
2024/04/17 06:22:56;;;;;;;2.73;1.20;;;5.10;99.90;;;;;;5408168;26;21287;-65
2024/04/17 06:25:22;;;;;;;1.33;1.23;;;5.20;99.90;;;;;;5394260;26;20240;-65
2024/04/17 06:27:47;;;;;;;3.10;1.77;;;5.20;99.90;;;;;;5408652;26;20237;-65
2024/04/17 06:30:13;;;;;;;2.07;1.87;;;5.20;99.90;;;;;;5401079;26;20860;-65
2024/04/17 06:32:39;;;;;;;2.00;1.60;;;5.30;99.90;;;;;;5409820;26;20233;-66
2024/04/17 06:35:05;;;;;;;1.77;1.53;;;5.30;99.90;;;;;;5409877;26;20232;-65
2024/04/17 06:37:30;;;;;;;2.43;2.23;;;5.40;99.90;;;;;;5407594;26;20694;-64
2024/04/17 06:39:56;;;;;;;1.70;1.57;;;5.40;99.90;;;;;;5407104;26;20226;-65
2024/04/17 06:42:21;;;;;;;2.07;1.63;;;5.50;99.90;;;;;;5409163;26;20311;-65
2024/04/17 06:44:47;;;;;;;1.87;1.50;;;5.50;99.90;;;;;;5406174;26;20236;-65
2024/04/17 06:47:14;;;;;;;1.20;1.20;;;5.50;99.90;;;;;;5405937;26;20240;-65
2024/04/17 06:49:39;;;;;;;1.10;1.10;;;5.50;99.90;;;;;;5406451;26;20735;-66
2024/04/17 06:52:05;;;;;;;1.30;1.20;;;5.40;99.90;;;;;;5401758;26;20462;-65
2024/04/17 06:54:31;;;;;;;1.10;1.00;;;5.50;99.90;;;;;;5408343;26;20322;-65
2024/04/17 06:56:56;;;;;;;2.17;1.50;;;5.50;99.90;;;;;;5407715;26;20224;-64
2024/04/17 06:59:22;;;;;;;1.00;0.90;;;5.50;99.90;;;;;;5407941;26;20631;-65
2024/04/17 07:01:47;;;;;;;3.33;1.00;;;5.50;99.90;;;;;;5406310;26;20276;-65
2024/04/17 07:04:13;;;;;;;1.13;1.03;;;5.50;99.90;;;;;;5405154;26;20267;-66
2024/04/17 07:06:40;;;;;;;1.53;1.33;;;5.50;99.90;;;;;;5407888;26;20996;-65
2024/04/17 07:09:06;;;;;;;0.80;0.80;;;5.50;99.90;;;;;;5409922;26;20504;-65
2024/04/17 07:11:32;;;;;;;1.07;0.90;;;5.60;99.90;;;;;;5405019;26;21429;-65
2024/04/17 07:13:59;;;;;;;0.90;0.90;;;5.60;99.90;;;;;;5409111;26;20232;-65
2024/04/17 07:16:24;;;;;;;0.90;0.90;;;5.80;99.90;;;;;;5398878;26;20512;-64
2024/04/17 07:18:50;;;;;;;1.10;1.00;;;5.80;99.90;;;;;;5407105;26;20458;-66
2024/04/17 07:21:16;;;;;;;0.80;0.80;;;5.90;99.90;;;;;;5406510;26;20224;-65
2024/04/17 07:23:43;;;;;;;0.93;0.90;;;5.90;99.90;;;;;;5408500;26;20275;-65
2024/04/17 07:26:12;;;;;;;0.97;0.90;;;6.00;99.90;;;;;;5409737;26;20447;-65
2024/04/17 07:28:38;;;;;;;1.17;1.00;;;5.90;99.90;;;;;;5406445;26;20848;-65
2024/04/17 07:31:04;;;;;;;1.70;1.17;;;5.90;99.90;;;;;;5406700;26;20515;-65
2024/04/17 07:33:29;;;;;;;0.80;0.80;;;5.90;99.90;;;;;;5408898;26;20284;-65
2024/04/17 07:35:59;;;;;;;0.77;0.77;;;5.90;99.90;;;;;;5408487;26;20983;-66
2024/04/17 07:38:25;;;;;;;2.03;0.90;;;5.90;99.90;;;;;;5407970;26;20564;-65
2024/04/17 07:41:00;;;;;;;0.90;0.90;;;5.80;99.50;;;;;;5399472;26;20468;-66
2024/04/17 07:43:32;;;;;;;0.90;0.90;;;5.80;99.90;;;;;;5409990;26;20463;-65
2024/04/17 07:45:59;;;;;;;1.00;1.00;;;5.80;99.90;;;;;;5409563;26;20587;-65
2024/04/17 07:48:24;;;;;;;1.13;1.13;;;5.80;99.90;;;;;;5405208;26;20454;-62
2024/04/17 07:50:50;;;;;;;1.00;1.00;;;5.80;99.90;;;;;;5408325;26;20462;-65
2024/04/17 07:53:16;;;;;;;1.40;1.30;;;5.90;99.90;;;;;;5403387;26;20276;-65
2024/04/17 07:55:41;;;;;;;1.50;1.17;;;5.90;99.90;;;;;;5406989;26;20643;-66
2024/04/17 07:58:07;;;;;;;1.33;1.23;;;5.90;99.90;;;;;;5405146;26;20237;-65
2024/04/17 08:00:32;;;;;;;2.10;1.23;;;5.90;99.90;;;;;;5408150;26;20233;-65
2024/04/17 08:02:58;;;;;;;1.23;1.13;;;5.90;99.90;;;;;;5408730;26;20232;-65
2024/04/17 08:05:24;;;;;;;1.10;1.10;;;6.00;99.90;;;;;;5405375;26;20573;-63
2024/04/17 08:07:49;;;;;;;0.97;0.93;;;6.10;99.90;;;;;;5409677;26;20329;-66
2024/04/17 08:10:16;;;;;;;1.33;1.30;;;6.20;99.90;;;;;;5408548;26;20275;-65
2024/04/17 08:12:41;;;;;;;1.47;1.37;;;6.20;99.90;;;;;;5409805;26;21018;-65
2024/04/17 08:15:12;;;;;;;0.90;0.90;;;6.20;99.90;;;;;;5406767;26;20563;-65
2024/04/17 08:17:38;;;;;;;0.90;0.90;;;6.20;99.90;;;;;;5408826;26;20233;-66
2024/04/17 08:20:05;;;;;;;1.23;1.13;;;6.30;99.90;;;;;;5405484;26;20514;-66
2024/04/17 08:22:30;;;;;;;1.00;1.00;;;6.30;99.90;;;;;;5407844;26;20470;-65
2024/04/17 08:24:56;;;;;;;0.90;0.90;;;6.30;99.90;;;;;;5409134;26;21137;-67
2024/04/17 08:27:21;;;;;;;0.90;0.90;;;6.40;99.90;;;;;;5437023;26;20804;-65
2024/04/17 08:29:47;;;;;;;1.17;1.07;;;6.40;99.90;;;;;;5408556;26;20217;-65
2024/04/17 08:32:13;;;;;;;1.00;1.00;;;6.40;98.60;;;;;;5406863;26;20267;-65
2024/04/17 08:34:38;;;;;;;1.23;1.13;;;6.30;99.40;;;;;;5408784;26;20271;-65
2024/04/17 08:37:05;;;;;;;1.00;1.00;;;6.40;99.90;;;;;;5408466;26;20233;-65
2024/04/17 08:39:31;;;;;;;1.23;1.13;;;6.40;99.90;;;;;;5402344;26;20233;-65
2024/04/17 08:42:06;;;;;;;1.00;1.00;;;6.50;99.90;;;;;;5405347;26;20450;-65
2024/04/17 08:44:36;;;;;;;1.13;1.10;;;6.40;99.90;;;;;;5402071;26;20239;-65
2024/04/17 08:47:06;;;;;;;2.40;1.10;;;6.40;98.80;;;;;;5400570;26;20577;-65
2024/04/17 08:49:34;;;;;;;1.60;1.30;;;6.30;99.90;;;;;;5405091;26;20516;-65
2024/04/17 08:52:04;;;;;;;4.67;2.00;;;6.30;99.90;;;;;;5401672;26;20568;-65
2024/04/17 08:54:30;;;;;;;1.50;1.40;;;6.20;99.90;;;;;;5406243;26;20454;-65
2024/04/17 08:56:56;;;;;;;1.00;1.00;;;6.10;99.90;;;;;;5402939;26;20504;-65
2024/04/17 08:59:21;;;;;;;1.40;1.30;;;6.00;99.90;;;;;;5402202;26;20232;-65
2024/04/17 09:01:49;;;;;;;1.30;1.20;;;6.00;99.90;;;;;;5449122;21;20638;-63
2024/04/17 09:04:17;;;;;;;1.00;1.00;;;6.00;99.90;;;;;;5433027;26;20589;-60
2024/04/17 09:06:43;;;;;;;1.00;1.00;;;6.00;99.90;;;;;;5441531;26;21299;-59
2024/04/17 09:09:12;;;;;;;0.90;0.90;;;6.00;99.90;;;;;;5441002;26;20518;-62
2024/04/17 09:11:40;;;;;;;1.03;1.03;;;6.10;99.90;;;;;;5434925;26;20454;-60
2024/04/17 09:14:05;;;;;;;0.83;0.83;;;6.20;99.90;;;;;;5412793;26;20504;-61
2024/04/17 09:16:31;;;;;;;0.90;0.90;;;6.30;99.90;;;;;;5410256;26;20451;-59
2024/04/17 09:18:57;;;;;;;2.30;0.90;;;6.40;99.90;;;;;;5412803;26;20285;-60
2024/04/17 09:21:22;;;;;;;1.13;1.13;;;6.50;99.90;;;;;;5412061;26;20233;-59
2024/04/17 09:23:48;;;;;;;0.90;0.90;;;6.60;99.90;;;;;;5418075;26;20232;-60
2024/04/17 09:26:14;;;;;;;1.10;1.10;;;6.70;99.90;;;;;;5415335;26;20613;-62
2024/04/17 09:28:40;;;;;;;1.10;1.10;;;6.80;99.90;;;;;;5402972;26;20237;-61
2024/04/17 09:31:06;;;;;;;1.23;1.13;;;6.90;99.90;;;;;;5412674;26;20620;-61
2024/04/17 09:33:32;;;;;;;1.00;1.00;;;7.00;99.90;;;;;;5411255;26;20446;-61
2024/04/17 09:36:01;;;;;;;2.10;0.90;;;7.00;99.90;;;;;;5421359;26;20220;-62
2024/04/17 09:38:26;;;;;;;1.00;1.00;;;7.00;99.90;;;;;;5407322;26;20280;-59
2024/04/17 09:40:52;;;;;;;0.90;0.90;;;7.00;99.90;;;;;;5410915;26;20867;-62
2024/04/17 09:43:25;;;;;;;0.80;0.80;;;7.10;99.90;;;;;;5411155;26;21438;-63
2024/04/17 09:46:02;;;;;;;0.80;0.80;;;7.10;99.90;;;;;;5411612;26;20854;-61
2024/04/17 09:48:29;;;;;;;1.10;1.10;;;7.10;99.90;;;;;;5407108;26;20600;-61
2024/04/17 09:51:00;;;;;;;1.10;1.00;;;7.10;99.90;;;;;;5414198;26;20510;-61
2024/04/17 09:53:30;;;;;;;1.00;0.90;;;7.00;99.90;;;;;;5407349;26;20443;-60
2024/04/17 09:55:57;;;;;;;0.97;0.97;;;6.90;99.90;;;;;;5405338;26;21024;-60
2024/04/17 09:58:24;;;;;;;0.80;0.80;;;6.80;99.90;;;;;;5398416;26;20903;-64
2024/04/17 10:00:50;;;;;;;0.83;0.83;;;6.70;99.90;;;;;;5402348;26;20470;-61
2024/04/17 10:03:17;;;;;;;0.83;0.83;;;6.60;99.90;;;;;;5415972;26;20462;-61
2024/04/17 10:05:44;;;;;;;1.20;1.10;;;6.60;99.90;;;;;;5408572;26;20519;-62
2024/04/17 10:08:10;;;;;;;1.00;1.00;;;6.60;99.90;;;;;;5404964;26;20450;-61
2024/04/17 10:10:37;;;;;;;0.90;0.90;;;6.60;99.90;;;;;;5413377;26;20506;-60
2024/04/17 10:13:04;;;;;;;0.80;0.80;;;6.60;99.90;;;;;;5408900;26;20444;-61
2024/04/17 10:15:30;;;;;;;1.03;1.03;;;6.60;99.90;;;;;;5376256;26;20464;-61
2024/04/17 10:17:56;;;;;;;2.40;1.10;;;6.60;99.90;;;;;;5407634;26;20951;-62
2024/04/17 10:20:29;;;;;;;0.90;0.90;;;6.50;99.90;;;;;;5409822;26;20275;-63
2024/04/17 10:23:08;;;;;;;0.90;0.90;;;6.40;99.10;;;;;;5414037;26;20235;-58
2024/04/17 10:25:34;;;;;;;9.70;5.33;;;6.30;99.20;;;;;;5403900;26;20526;-62
2024/04/17 10:28:17;;;;;;;1.43;1.10;;;6.30;99.90;;;;;;5408082;26;20511;-62
2024/04/17 10:30:43;;;;;;;0.90;0.90;;;6.30;99.90;;;;;;5401890;26;20471;-60
2024/04/17 10:33:30;;;;;;;0.90;0.90;;;6.40;99.90;;;;;;5404621;26;20507;-61
2024/04/17 10:35:59;;;;;;;0.80;0.80;;;6.40;99.90;;;;;;5403125;26;21058;-60
2024/04/17 10:38:30;;;;;;;0.87;0.87;;;6.50;99.90;;;;;;5412203;26;21024;-61
2024/04/17 10:40:56;;;;;;;1.10;1.00;;;6.50;99.90;;;;;;5404607;26;20891;-60
2024/04/17 10:43:26;;;;;;;1.10;1.10;;;6.40;99.20;;;;;;5407601;26;20450;-63
2024/04/17 10:46:10;;;;;;;0.93;0.93;;;6.40;98.60;;;;;;5401625;26;20458;-61
2024/04/17 10:48:49;;;;;;;1.83;1.17;;;6.40;99.90;;;;;;5402336;26;20458;-62
2024/04/17 10:51:16;;;;;;;0.80;0.80;;;6.30;99.20;;;;;;5401439;26;20522;-60
2024/04/17 10:53:47;;;;;;;0.90;0.90;;;6.20;98.50;;;;;;5414620;26;20541;-60
2024/04/17 10:56:16;;;;;;;1.20;1.10;;;6.30;93.60;;;;;;5422301;26;20459;-62
2024/04/17 10:58:42;;;;;;;1.00;1.00;;;6.20;92.90;;;;;;5420618;26;20510;-61
2024/04/17 11:01:08;;;;;;;1.00;1.00;;;6.20;99.00;;;;;;5409063;26;20462;-61
2024/04/17 11:03:34;;;;;;;2.20;0.93;;;6.20;94.20;;;;;;5402161;26;20451;-62
2024/04/17 11:05:59;;;;;;;1.63;1.53;;;6.20;93.00;;;;;;5413799;26;20750;-60
2024/04/17 11:08:25;;;;;;;1.30;1.20;;;6.20;98.50;;;;;;5403242;26;20225;-63
2024/04/17 11:10:54;;;;;;;1.80;1.30;;;6.20;99.50;;;;;;5404342;26;20241;-61
2024/04/17 11:13:20;;;;;;;1.40;1.30;;;6.20;96.50;;;;;;5405303;26;20621;-59
2024/04/17 11:15:46;;;;;;;1.63;1.53;;;6.10;94.70;;;;;;5411848;26;20458;-60
2024/04/17 11:18:12;;;;;;;2.30;1.70;;;6.10;94.60;;;;;;5408856;26;21325;-59
2024/04/17 11:20:39;;;;;;;1.40;1.40;;;6.10;97.90;;;;;;5407126;26;20455;-60
2024/04/17 11:23:08;;;;;;;1.40;1.30;;;6.10;97.40;;;;;;5407275;26;20228;-59
2024/04/17 11:25:38;;;;;;;0.97;0.97;;;6.10;97.50;;;;;;5406340;26;20507;-58
2024/04/17 11:28:04;;;;;;;2.10;1.23;;;6.10;95.90;;;;;;5403707;26;20447;-60
2024/04/17 11:30:30;;;;;;;1.00;1.00;;;5.90;96.20;;;;;;5411272;26;20564;-61
2024/04/17 11:32:55;;;;;;;1.10;1.10;;;5.90;98.10;;;;;;5408993;26;20830;-61
2024/04/17 11:35:21;;;;;;;3.30;1.20;;;5.90;98.70;;;;;;5404783;26;20480;-61
2024/04/17 11:37:49;;;;;;;2.03;1.53;;;5.80;97.50;;;;;;5407161;26;20227;-65
2024/04/17 11:40:15;;;;;;;1.40;1.30;;;5.80;97.40;;;;;;5398353;26;20384;-58
2024/04/17 11:42:41;;;;;;;1.87;1.77;;;5.70;99.90;;;;;;5402597;26;20559;-61
2024/04/17 11:45:08;;;;;;;2.30;1.30;;;5.80;99.90;;;;;;5404466;26;22523;-61
2024/04/17 11:47:34;;;;;;;1.37;1.27;;;5.80;99.90;;;;;;5391109;26;20506;-61
2024/04/17 11:50:00;;;;;;;1.90;1.60;;;5.80;99.60;;;;;;5404089;26;20462;-62
2024/04/17 11:52:26;;;;;;;2.10;1.47;;;5.80;99.20;;;;;;5408292;26;20451;-62
2024/04/17 11:54:51;;;;;;;1.57;1.20;;;5.90;99.90;;;;;;5407660;26;20229;-61
2024/04/17 11:57:17;;;;;;;2.33;1.60;;;6.00;99.90;;;;;;5405881;26;20275;-61
2024/04/17 11:59:44;;;;;;;3.10;1.83;;;6.20;99.90;;;;;;5413517;26;20241;-60
2024/04/17 12:02:10;;;;;;;2.50;2.00;;;6.50;99.90;;;;;;5410341;26;20262;-60
2024/04/17 12:04:36;;;;;;;2.50;2.07;;;6.60;99.90;;;;;;5410278;26;20450;-60
2024/04/17 12:07:01;;;;;;;2.33;2.13;;;6.70;99.90;;;;;;5403264;26;21264;-62
2024/04/17 12:09:29;;;;;;;3.13;1.80;;;6.80;99.90;;;;;;5402443;26;20771;-63
2024/04/17 12:11:55;;;;;;;3.57;2.20;;;7.00;99.90;;;;;;5402831;26;20280;-61
2024/04/17 12:14:20;;;;;;;2.57;2.33;;;7.10;97.10;;;;;;5417205;26;20458;-64
2024/04/17 12:16:46;;;;;;;4.83;3.03;;;7.00;96.50;;;;;;5405458;26;20290;-61
2024/04/17 12:19:13;;;;;;;3.73;2.67;;;6.80;87.00;;;;;;5401648;26;20233;-60
2024/04/17 12:21:39;;;;;;;4.60;2.50;;;6.60;83.90;;;;;;5411376;26;20318;-61
2024/04/17 12:24:08;;;;;;;5.00;2.30;;;6.60;85.30;;;;;;5412747;26;20916;-60
2024/04/17 12:26:52;;;;;;;4.30;2.67;;;6.60;81.40;;;;;;5401842;26;21074;-63
2024/04/17 12:29:18;;;;;;;4.13;2.83;;;6.60;79.80;;;;;;5401322;26;20458;-60
2024/04/17 12:31:44;;;;;;;3.40;2.70;;;6.80;81.20;;;;;;5391786;26;20479;-62
2024/04/17 12:34:10;;;;;;;4.70;3.10;;;6.80;77.70;;;;;;5406155;26;20443;-61
2024/04/17 12:36:36;;;;;;;9.10;3.87;;;6.90;74.90;;;;;;5398549;26;20233;-60
2024/04/17 12:39:03;;;;;;;5.07;3.17;;;7.20;78.30;;;;;;5404225;26;20309;-62
2024/04/17 12:41:33;;;;;;;6.13;3.17;;;7.40;81.80;;;;;;5403716;26;20458;-60
2024/04/17 12:44:00;;;;;;;5.03;2.80;;;7.70;79.30;;;;;;5405850;26;20443;-63
2024/04/17 12:46:25;;;;;;;4.93;2.17;;;7.80;70.90;;;;;;5407723;26;21099;-61
2024/04/17 12:48:51;;;;;;;5.27;2.30;;;7.80;67.90;;;;;;5405054;26;20462;-59
2024/04/17 12:51:17;;;;;;;4.60;2.80;;;7.80;69.20;;;;;;5411451;26;20271;-59
2024/04/17 12:53:42;;;;;;;8.83;2.90;;;7.80;68.80;;;;;;5409902;26;20241;-58